sensor_id;sensor_type;location;lat;lon;timestamp;pressure;altitude;pressure_sealevel;temperature;humidity
43436;BME280;36399;51.444;-2.018;2023-04-26T00:02:10;100984.25;;;4.12;100.00
43436;BME280;36399;51.444;-2.018;2023-04-26T00:04:37;100976.53;;;4.14;100.00
43436;BME280;36399;51.444;-2.018;2023-04-26T00:07:03;100976.38;;;4.11;100.00
43436;BME280;36399;51.444;-2.018;2023-04-26T00:09:29;100966.97;;;4.13;100.00
43436;BME280;36399;51.444;-2.018;2023-04-26T00:11:56;100961.25;;;4.20;100.00
43436;BME280;36399;51.444;-2.018;2023-04-26T00:14:22;100965.41;;;4.17;100.00
43436;BME280;36399;51.444;-2.018;2023-04-26T00:16:48;100970.16;;;4.25;100.00
43436;BME280;36399;51.444;-2.018;2023-04-26T00:19:14;100981.91;;;4.17;100.00
43436;BME280;36399;51.444;-2.018;2023-04-26T00:21:40;100974.47;;;4.25;100.00
43436;BME280;36399;51.444;-2.018;2023-04-26T00:24:07;100973.03;;;4.31;100.00
43436;BME280;36399;51.444;-2.018;2023-04-26T00:26:33;100977.88;;;4.24;100.00
43436;BME280;36399;51.444;-2.018;2023-04-26T00:29:00;100971.66;;;4.20;100.00
43436;BME280;36399;51.444;-2.018;2023-04-26T00:31:26;100961.81;;;4.15;100.00
43436;BME280;36399;51.444;-2.018;2023-04-26T00:33:52;100960.94;;;4.14;100.00
43436;BME280;36399;51.444;-2.018;2023-04-26T00:36:18;100955.53;;;4.09;100.00
43436;BME280;36399;51.444;-2.018;2023-04-26T00:38:45;100966.66;;;4.07;100.00
43436;BME280;36399;51.444;-2.018;2023-04-26T00:41:11;100970.75;;;4.02;100.00
43436;BME280;36399;51.444;-2.018;2023-04-26T00:43:37;100969.94;;;4.03;100.00
43436;BME280;36399;51.444;-2.018;2023-04-26T00:46:05;100964.81;;;4.04;100.00
43436;BME280;36399;51.444;-2.018;2023-04-26T00:48:32;100968.31;;;4.05;100.00
43436;BME280;36399;51.444;-2.018;2023-04-26T00:50:59;100965.44;;;3.99;100.00
43436;BME280;36399;51.444;-2.018;2023-04-26T00:53:25;100973.00;;;3.94;100.00
43436;BME280;36399;51.444;-2.018;2023-04-26T00:55:52;100969.44;;;3.92;100.00
43436;BME280;36399;51.444;-2.018;2023-04-26T00:58:19;100964.84;;;3.87;100.00
43436;BME280;36399;51.444;-2.018;2023-04-26T01:00:45;100963.06;;;3.86;100.00
43436;BME280;36399;51.444;-2.018;2023-04-26T01:03:11;100966.50;;;3.85;100.00
43436;BME280;36399;51.444;-2.018;2023-04-26T01:05:37;100960.25;;;3.81;100.00
43436;BME280;36399;51.444;-2.018;2023-04-26T01:08:03;100965.81;;;3.89;100.00
43436;BME280;36399;51.444;-2.018;2023-04-26T01:10:33;100970.19;;;3.90;100.00
43436;BME280;36399;51.444;-2.018;2023-04-26T01:13:00;100973.91;;;3.95;100.00
43436;BME280;36399;51.444;-2.018;2023-04-26T01:15:26;100970.47;;;3.96;100.00
43436;BME280;36399;51.444;-2.018;2023-04-26T01:17:53;100970.63;;;3.99;100.00
43436;BME280;36399;51.444;-2.018;2023-04-26T01:20:19;100976.78;;;4.01;100.00
43436;BME280;36399;51.444;-2.018;2023-04-26T01:22:45;100977.75;;;4.03;100.00
43436;BME280;36399;51.444;-2.018;2023-04-26T01:25:11;100977.06;;;4.07;100.00
43436;BME280;36399;51.444;-2.018;2023-04-26T01:27:37;100969.56;;;4.13;100.00
43436;BME280;36399;51.444;-2.018;2023-04-26T01:30:04;100970.63;;;4.17;100.00
43436;BME280;36399;51.444;-2.018;2023-04-26T01:32:30;100968.91;;;4.17;100.00
43436;BME280;36399;51.444;-2.018;2023-04-26T01:34:56;100963.72;;;4.17;100.00
43436;BME280;36399;51.444;-2.018;2023-04-26T01:37:22;100960.28;;;4.18;100.00
43436;BME280;36399;51.444;-2.018;2023-04-26T01:39:48;100957.63;;;4.17;100.00
43436;BME280;36399;51.444;-2.018;2023-04-26T01:42:13;100962.72;;;4.15;100.00
43436;BME280;36399;51.444;-2.018;2023-04-26T01:44:39;100961.81;;;4.15;100.00
43436;BME280;36399;51.444;-2.018;2023-04-26T01:47:05;100958.28;;;4.12;100.00
43436;BME280;36399;51.444;-2.018;2023-04-26T01:49:31;100957.44;;;4.13;100.00
43436;BME280;36399;51.444;-2.018;2023-04-26T01:51:58;100964.00;;;4.23;100.00
43436;BME280;36399;51.444;-2.018;2023-04-26T01:54:24;100958.50;;;4.17;100.00
43436;BME280;36399;51.444;-2.018;2023-04-26T01:56:50;100958.28;;;4.12;100.00
43436;BME280;36399;51.444;-2.018;2023-04-26T01:59:16;100959.16;;;4.13;100.00
43436;BME280;36399;51.444;-2.018;2023-04-26T02:01:42;100966.81;;;4.10;100.00
43436;BME280;36399;51.444;-2.018;2023-04-26T02:04:10;100971.34;;;4.14;100.00
43436;BME280;36399;51.444;-2.018;2023-04-26T02:06:36;100972.97;;;4.12;100.00
43436;BME280;36399;51.444;-2.018;2023-04-26T02:09:03;100959.63;;;4.22;100.00
43436;BME280;36399;51.444;-2.018;2023-04-26T02:11:29;100959.16;;;4.31;100.00
43436;BME280;36399;51.444;-2.018;2023-04-26T02:13:55;100958.25;;;4.30;100.00
43436;BME280;36399;51.444;-2.018;2023-04-26T02:16:21;100954.41;;;4.22;100.00
43436;BME280;36399;51.444;-2.018;2023-04-26T02:18:47;100963.84;;;4.20;100.00
43436;BME280;36399;51.444;-2.018;2023-04-26T02:21:18;100955.78;;;4.33;100.00
43436;BME280;36399;51.444;-2.018;2023-04-26T02:23:44;100957.84;;;4.40;100.00
43436;BME280;36399;51.444;-2.018;2023-04-26T02:26:10;100955.53;;;4.47;100.00
43436;BME280;36399;51.444;-2.018;2023-04-26T02:28:39;100957.97;;;4.63;100.00
43436;BME280;36399;51.444;-2.018;2023-04-26T02:31:05;100956.28;;;4.63;100.00
43436;BME280;36399;51.444;-2.018;2023-04-26T02:33:31;100949.16;;;4.59;100.00
43436;BME280;36399;51.444;-2.018;2023-04-26T02:35:57;100951.44;;;4.71;100.00
43436;BME280;36399;51.444;-2.018;2023-04-26T02:38:24;100947.47;;;4.79;100.00
43436;BME280;36399;51.444;-2.018;2023-04-26T02:41:02;100937.44;;;4.88;100.00
43436;BME280;36399;51.444;-2.018;2023-04-26T02:43:28;100935.72;;;4.89;100.00
43436;BME280;36399;51.444;-2.018;2023-04-26T02:45:54;100931.78;;;4.78;100.00
43436;BME280;36399;51.444;-2.018;2023-04-26T02:48:23;100932.94;;;4.84;100.00
43436;BME280;36399;51.444;-2.018;2023-04-26T02:50:49;100928.09;;;4.72;100.00
43436;BME280;36399;51.444;-2.018;2023-04-26T02:53:15;100919.16;;;4.67;100.00
43436;BME280;36399;51.444;-2.018;2023-04-26T02:55:42;100927.34;;;4.75;100.00
43436;BME280;36399;51.444;-2.018;2023-04-26T02:58:08;100924.81;;;4.77;100.00
43436;BME280;36399;51.444;-2.018;2023-04-26T03:00:34;100930.91;;;4.77;100.00
43436;BME280;36399;51.444;-2.018;2023-04-26T03:03:00;100919.03;;;4.84;100.00
43436;BME280;36399;51.444;-2.018;2023-04-26T03:05:26;100911.88;;;4.78;100.00
43436;BME280;36399;51.444;-2.018;2023-04-26T03:07:52;100908.69;;;4.66;100.00
43436;BME280;36399;51.444;-2.018;2023-04-26T03:10:18;100910.22;;;4.61;100.00
43436;BME280;36399;51.444;-2.018;2023-04-26T03:12:44;100907.75;;;4.64;100.00
43436;BME280;36399;51.444;-2.018;2023-04-26T03:15:10;100911.94;;;4.60;100.00
43436;BME280;36399;51.444;-2.018;2023-04-26T03:17:36;100909.13;;;4.56;100.00
43436;BME280;36399;51.444;-2.018;2023-04-26T03:20:02;100908.25;;;4.55;100.00
43436;BME280;36399;51.444;-2.018;2023-04-26T03:22:31;100912.56;;;4.55;100.00
43436;BME280;36399;51.444;-2.018;2023-04-26T03:24:57;100909.81;;;4.32;100.00
43436;BME280;36399;51.444;-2.018;2023-04-26T03:27:23;100912.97;;;4.25;100.00
43436;BME280;36399;51.444;-2.018;2023-04-26T03:29:49;100907.03;;;4.28;100.00
43436;BME280;36399;51.444;-2.018;2023-04-26T03:32:15;100899.28;;;4.29;100.00
43436;BME280;36399;51.444;-2.018;2023-04-26T03:34:41;100897.38;;;4.25;100.00
43436;BME280;36399;51.444;-2.018;2023-04-26T03:37:07;100896.16;;;4.36;100.00
43436;BME280;36399;51.444;-2.018;2023-04-26T03:39:33;100894.22;;;4.32;100.00
43436;BME280;36399;51.444;-2.018;2023-04-26T03:41:59;100888.63;;;4.23;100.00
43436;BME280;36399;51.444;-2.018;2023-04-26T03:44:25;100888.19;;;4.14;100.00
43436;BME280;36399;51.444;-2.018;2023-04-26T03:46:51;100886.00;;;4.04;100.00
43436;BME280;36399;51.444;-2.018;2023-04-26T03:49:18;100893.72;;;4.02;100.00
43436;BME280;36399;51.444;-2.018;2023-04-26T03:51:44;100892.22;;;4.07;100.00
43436;BME280;36399;51.444;-2.018;2023-04-26T03:54:09;100888.03;;;3.92;100.00
43436;BME280;36399;51.444;-2.018;2023-04-26T03:56:36;100890.78;;;3.95;100.00
43436;BME280;36399;51.444;-2.018;2023-04-26T03:59:02;100887.41;;;3.78;100.00
43436;BME280;36399;51.444;-2.018;2023-04-26T04:01:28;100880.09;;;3.89;100.00
43436;BME280;36399;51.444;-2.018;2023-04-26T04:03:53;100868.00;;;3.70;100.00
43436;BME280;36399;51.444;-2.018;2023-04-26T04:06:19;100869.56;;;3.66;100.00
43436;BME280;36399;51.444;-2.018;2023-04-26T04:08:46;100878.59;;;3.74;100.00
43436;BME280;36399;51.444;-2.018;2023-04-26T04:11:12;100865.66;;;3.76;100.00
43436;BME280;36399;51.444;-2.018;2023-04-26T04:13:38;100867.38;;;3.58;100.00
43436;BME280;36399;51.444;-2.018;2023-04-26T04:16:04;100864.13;;;3.62;100.00
43436;BME280;36399;51.444;-2.018;2023-04-26T04:18:31;100863.22;;;3.61;100.00
43436;BME280;36399;51.444;-2.018;2023-04-26T04:20:57;100860.44;;;3.39;100.00
43436;BME280;36399;51.444;-2.018;2023-04-26T04:23:23;100857.19;;;3.25;100.00
43436;BME280;36399;51.444;-2.018;2023-04-26T04:25:49;100859.72;;;3.24;100.00
43436;BME280;36399;51.444;-2.018;2023-04-26T04:28:16;100857.19;;;3.25;100.00
43436;BME280;36399;51.444;-2.018;2023-04-26T04:30:42;100863.28;;;3.26;100.00
43436;BME280;36399;51.444;-2.018;2023-04-26T04:33:11;100869.66;;;3.32;100.00
43436;BME280;36399;51.444;-2.018;2023-04-26T04:35:40;100866.59;;;3.41;100.00
43436;BME280;36399;51.444;-2.018;2023-04-26T04:38:05;100862.25;;;3.59;100.00
43436;BME280;36399;51.444;-2.018;2023-04-26T04:40:31;100865.31;;;3.68;100.00
43436;BME280;36399;51.444;-2.018;2023-04-26T04:42:57;100860.34;;;3.73;100.00
43436;BME280;36399;51.444;-2.018;2023-04-26T04:45:25;100861.25;;;3.93;100.00
43436;BME280;36399;51.444;-2.018;2023-04-26T04:47:51;100858.50;;;3.90;100.00
43436;BME280;36399;51.444;-2.018;2023-04-26T04:50:19;100863.63;;;3.88;100.00
43436;BME280;36399;51.444;-2.018;2023-04-26T04:52:45;100858.50;;;4.09;100.00
43436;BME280;36399;51.444;-2.018;2023-04-26T04:55:11;100860.97;;;4.06;100.00
43436;BME280;36399;51.444;-2.018;2023-04-26T04:57:37;100858.78;;;4.15;100.00
43436;BME280;36399;51.444;-2.018;2023-04-26T05:00:04;100858.72;;;4.13;100.00
43436;BME280;36399;51.444;-2.018;2023-04-26T05:02:48;100860.50;;;4.15;100.00
43436;BME280;36399;51.444;-2.018;2023-04-26T05:05:14;100853.91;;;4.21;100.00
43436;BME280;36399;51.444;-2.018;2023-04-26T05:07:39;100861.00;;;4.25;100.00
43436;BME280;36399;51.444;-2.018;2023-04-26T05:10:06;100864.00;;;4.34;100.00
43436;BME280;36399;51.444;-2.018;2023-04-26T05:12:32;100857.09;;;4.35;100.00
43436;BME280;36399;51.444;-2.018;2023-04-26T05:14:58;100862.03;;;4.29;100.00
43436;BME280;36399;51.444;-2.018;2023-04-26T05:17:24;100855.59;;;4.40;100.00
43436;BME280;36399;51.444;-2.018;2023-04-26T05:19:50;100861.47;;;4.36;100.00
43436;BME280;36399;51.444;-2.018;2023-04-26T05:22:16;100862.88;;;4.49;100.00
43436;BME280;36399;51.444;-2.018;2023-04-26T05:24:45;100864.41;;;4.43;100.00
43436;BME280;36399;51.444;-2.018;2023-04-26T05:27:11;100870.81;;;4.52;100.00
43436;BME280;36399;51.444;-2.018;2023-04-26T05:29:38;100867.00;;;4.43;100.00
43436;BME280;36399;51.444;-2.018;2023-04-26T05:32:04;100875.25;;;4.54;100.00
43436;BME280;36399;51.444;-2.018;2023-04-26T05:34:30;100871.56;;;4.49;100.00
43436;BME280;36399;51.444;-2.018;2023-04-26T05:36:56;100872.72;;;4.75;100.00
43436;BME280;36399;51.444;-2.018;2023-04-26T05:39:22;100881.28;;;4.72;100.00
43436;BME280;36399;51.444;-2.018;2023-04-26T05:41:48;100875.94;;;4.69;100.00
43436;BME280;36399;51.444;-2.018;2023-04-26T05:44:13;100872.97;;;4.81;100.00
43436;BME280;36399;51.444;-2.018;2023-04-26T05:46:40;100873.94;;;4.83;100.00
43436;BME280;36399;51.444;-2.018;2023-04-26T05:49:06;100867.34;;;4.91;100.00
43436;BME280;36399;51.444;-2.018;2023-04-26T05:51:32;100865.16;;;5.02;100.00
43436;BME280;36399;51.444;-2.018;2023-04-26T05:53:58;100861.56;;;4.98;100.00
43436;BME280;36399;51.444;-2.018;2023-04-26T05:56:24;100861.56;;;4.98;100.00
43436;BME280;36399;51.444;-2.018;2023-04-26T05:58:51;100861.34;;;5.15;100.00
43436;BME280;36399;51.444;-2.018;2023-04-26T06:01:18;100859.47;;;5.11;100.00
43436;BME280;36399;51.444;-2.018;2023-04-26T06:03:45;100856.78;;;5.09;100.00
43436;BME280;36399;51.444;-2.018;2023-04-26T06:06:11;100858.69;;;5.34;100.00
43436;BME280;36399;51.444;-2.018;2023-04-26T06:08:37;100849.66;;;5.47;100.00
43436;BME280;36399;51.444;-2.018;2023-04-26T06:11:03;100859.28;;;5.49;100.00
43436;BME280;36399;51.444;-2.018;2023-04-26T06:13:29;100859.88;;;5.64;100.00
43436;BME280;36399;51.444;-2.018;2023-04-26T06:15:56;100849.34;;;5.61;100.00
43436;BME280;36399;51.444;-2.018;2023-04-26T06:18:22;100851.34;;;5.68;100.00
43436;BME280;36399;51.444;-2.018;2023-04-26T06:20:48;100853.75;;;5.85;100.00
43436;BME280;36399;51.444;-2.018;2023-04-26T06:23:14;100853.03;;;5.89;100.00
43436;BME280;36399;51.444;-2.018;2023-04-26T06:25:40;100853.28;;;5.95;100.00
43436;BME280;36399;51.444;-2.018;2023-04-26T06:28:10;100852.09;;;6.09;100.00
43436;BME280;36399;51.444;-2.018;2023-04-26T06:30:36;100832.59;;;6.23;100.00
43436;BME280;36399;51.444;-2.018;2023-04-26T06:33:02;100834.06;;;6.15;100.00
43436;BME280;36399;51.444;-2.018;2023-04-26T06:35:28;100842.09;;;6.21;100.00
43436;BME280;36399;51.444;-2.018;2023-04-26T06:37:54;100842.28;;;6.26;100.00
43436;BME280;36399;51.444;-2.018;2023-04-26T06:40:20;100836.63;;;6.38;100.00
43436;BME280;36399;51.444;-2.018;2023-04-26T06:42:46;100842.28;;;6.50;100.00
43436;BME280;36399;51.444;-2.018;2023-04-26T06:45:12;100840.28;;;6.43;100.00
43436;BME280;36399;51.444;-2.018;2023-04-26T06:47:39;100843.50;;;6.36;100.00
43436;BME280;36399;51.444;-2.018;2023-04-26T06:50:05;100847.06;;;6.38;100.00
43436;BME280;36399;51.444;-2.018;2023-04-26T06:52:31;100854.88;;;6.38;100.00
43436;BME280;36399;51.444;-2.018;2023-04-26T06:55:00;100844.94;;;6.51;100.00
43436;BME280;36399;51.444;-2.018;2023-04-26T06:57:27;100844.25;;;6.57;100.00
43436;BME280;36399;51.444;-2.018;2023-04-26T06:59:53;100839.31;;;6.90;100.00
43436;BME280;36399;51.444;-2.018;2023-04-26T07:02:19;100834.41;;;7.26;100.00
43436;BME280;36399;51.444;-2.018;2023-04-26T07:04:45;100842.22;;;7.26;100.00
43436;BME280;36399;51.444;-2.018;2023-04-26T07:07:11;100836.78;;;7.74;100.00
43436;BME280;36399;51.444;-2.018;2023-04-26T07:09:39;100831.13;;;7.60;100.00
43436;BME280;36399;51.444;-2.018;2023-04-26T07:12:05;100836.38;;;7.88;100.00
43436;BME280;36399;51.444;-2.018;2023-04-26T07:14:31;100834.63;;;7.89;100.00
43436;BME280;36399;51.444;-2.018;2023-04-26T07:16:57;100835.69;;;8.26;100.00
43436;BME280;36399;51.444;-2.018;2023-04-26T07:19:23;100827.34;;;8.37;100.00
43436;BME280;36399;51.444;-2.018;2023-04-26T07:21:49;100828.19;;;8.69;100.00
43436;BME280;36399;51.444;-2.018;2023-04-26T07:24:15;100826.94;;;8.55;100.00
43436;BME280;36399;51.444;-2.018;2023-04-26T07:26:41;100832.78;;;8.78;100.00
43436;BME280;36399;51.444;-2.018;2023-04-26T07:29:07;100826.81;;;8.83;100.00
43436;BME280;36399;51.444;-2.018;2023-04-26T07:31:33;100816.75;;;8.99;100.00
43436;BME280;36399;51.444;-2.018;2023-04-26T07:33:59;100811.44;;;8.96;100.00
43436;BME280;36399;51.444;-2.018;2023-04-26T07:36:25;100823.28;;;9.16;100.00
43436;BME280;36399;51.444;-2.018;2023-04-26T07:38:52;100817.53;;;9.32;100.00
43436;BME280;36399;51.444;-2.018;2023-04-26T07:41:18;100823.91;;;9.42;100.00
43436;BME280;36399;51.444;-2.018;2023-04-26T07:43:44;100814.25;;;9.39;100.00
43436;BME280;36399;51.444;-2.018;2023-04-26T07:46:10;100807.38;;;9.44;100.00
43436;BME280;36399;51.444;-2.018;2023-04-26T07:48:36;100805.28;;;9.31;100.00
43436;BME280;36399;51.444;-2.018;2023-04-26T07:51:10;100813.41;;;9.04;100.00
43436;BME280;36399;51.444;-2.018;2023-04-26T07:53:39;100821.41;;;9.10;100.00
43436;BME280;36399;51.444;-2.018;2023-04-26T07:56:06;100815.28;;;9.10;100.00
43436;BME280;36399;51.444;-2.018;2023-04-26T07:58:33;100811.72;;;9.08;100.00
43436;BME280;36399;51.444;-2.018;2023-04-26T08:01:00;100813.88;;;9.24;100.00
43436;BME280;36399;51.444;-2.018;2023-04-26T08:03:26;100819.03;;;9.21;100.00
43436;BME280;36399;51.444;-2.018;2023-04-26T08:05:53;100815.06;;;9.01;100.00
43436;BME280;36399;51.444;-2.018;2023-04-26T08:08:21;100815.78;;;9.31;100.00
43436;BME280;36399;51.444;-2.018;2023-04-26T08:10:47;100812.31;;;9.32;100.00
43436;BME280;36399;51.444;-2.018;2023-04-26T08:13:13;100822.81;;;9.34;100.00
43436;BME280;36399;51.444;-2.018;2023-04-26T08:15:39;100812.63;;;9.44;100.00
43436;BME280;36399;51.444;-2.018;2023-04-26T08:18:05;100811.06;;;9.53;100.00
43436;BME280;36399;51.444;-2.018;2023-04-26T08:20:34;100815.59;;;10.00;100.00
43436;BME280;36399;51.444;-2.018;2023-04-26T08:23:00;100798.41;;;10.15;100.00
43436;BME280;36399;51.444;-2.018;2023-04-26T08:25:26;100802.78;;;10.16;100.00
43436;BME280;36399;51.444;-2.018;2023-04-26T08:27:52;100800.84;;;10.05;100.00
43436;BME280;36399;51.444;-2.018;2023-04-26T08:30:18;100800.16;;;10.59;100.00
43436;BME280;36399;51.444;-2.018;2023-04-26T08:32:45;100803.09;;;10.78;100.00
43436;BME280;36399;51.444;-2.018;2023-04-26T08:35:11;100788.91;;;11.18;100.00
43436;BME280;36399;51.444;-2.018;2023-04-26T08:37:38;100790.97;;;11.38;100.00
43436;BME280;36399;51.444;-2.018;2023-04-26T08:40:05;100788.34;;;11.38;100.00
43436;BME280;36399;51.444;-2.018;2023-04-26T08:42:39;100784.75;;;11.33;100.00
43436;BME280;36399;51.444;-2.018;2023-04-26T08:45:07;100789.88;;;11.24;100.00
43436;BME280;36399;51.444;-2.018;2023-04-26T08:47:49;100788.00;;;11.17;100.00
43436;BME280;36399;51.444;-2.018;2023-04-26T08:50:19;100791.56;;;11.19;100.00
43436;BME280;36399;51.444;-2.018;2023-04-26T08:52:47;100796.47;;;10.98;100.00
43436;BME280;36399;51.444;-2.018;2023-04-26T08:55:15;100796.78;;;10.66;100.00
43436;BME280;36399;51.444;-2.018;2023-04-26T08:57:46;100799.63;;;10.79;100.00
43436;BME280;36399;51.444;-2.018;2023-04-26T09:00:13;100800.81;;;10.46;100.00
43436;BME280;36399;51.444;-2.018;2023-04-26T09:02:41;100800.44;;;10.28;100.00
43436;BME280;36399;51.444;-2.018;2023-04-26T09:05:10;100808.06;;;10.17;100.00
43436;BME280;36399;51.444;-2.018;2023-04-26T09:07:46;100808.03;;;10.59;100.00
43436;BME280;36399;51.444;-2.018;2023-04-26T09:10:13;100811.78;;;10.27;100.00
43436;BME280;36399;51.444;-2.018;2023-04-26T09:12:42;100816.06;;;10.22;100.00
43436;BME280;36399;51.444;-2.018;2023-04-26T09:15:08;100812.69;;;10.29;100.00
43436;BME280;36399;51.444;-2.018;2023-04-26T09:17:37;100813.13;;;10.08;100.00
43436;BME280;36399;51.444;-2.018;2023-04-26T09:20:30;100827.00;;;10.02;100.00
43436;BME280;36399;51.444;-2.018;2023-04-26T09:25:29;100819.78;;;10.33;100.00
43436;BME280;36399;51.444;-2.018;2023-04-26T09:27:56;100820.31;;;10.18;100.00
43436;BME280;36399;51.444;-2.018;2023-04-26T09:30:22;100827.63;;;10.33;100.00
43436;BME280;36399;51.444;-2.018;2023-04-26T09:32:56;100816.59;;;10.49;100.00
43436;BME280;36399;51.444;-2.018;2023-04-26T09:35:29;100819.72;;;10.30;100.00
43436;BME280;36399;51.444;-2.018;2023-04-26T09:40:26;100806.38;;;10.64;100.00
43436;BME280;36399;51.444;-2.018;2023-04-26T09:43:00;100810.63;;;10.56;100.00
43436;BME280;36399;51.444;-2.018;2023-04-26T09:45:28;100810.13;;;10.79;100.00
43436;BME280;36399;51.444;-2.018;2023-04-26T09:48:11;100811.81;;;11.26;100.00
43436;BME280;36399;51.444;-2.018;2023-04-26T09:50:38;100804.47;;;11.63;100.00
43436;BME280;36399;51.444;-2.018;2023-04-26T09:53:04;100800.63;;;12.00;100.00
43436;BME280;36399;51.444;-2.018;2023-04-26T09:55:30;100793.63;;;12.00;100.00
43436;BME280;36399;51.444;-2.018;2023-04-26T09:57:57;100796.25;;;12.00;100.00
43436;BME280;36399;51.444;-2.018;2023-04-26T10:00:26;100794.56;;;12.06;100.00
43436;BME280;36399;51.444;-2.018;2023-04-26T10:02:53;100791.13;;;12.13;100.00
43436;BME280;36399;51.444;-2.018;2023-04-26T10:05:20;100790.38;;;12.24;100.00
43436;BME280;36399;51.444;-2.018;2023-04-26T10:07:47;100785.31;;;12.44;100.00
43436;BME280;36399;51.444;-2.018;2023-04-26T10:10:13;100786.97;;;12.33;100.00
43436;BME280;36399;51.444;-2.018;2023-04-26T10:12:40;100781.28;;;12.77;100.00
43436;BME280;36399;51.444;-2.018;2023-04-26T10:15:10;100783.91;;;12.78;100.00
43436;BME280;36399;51.444;-2.018;2023-04-26T10:17:37;100783.75;;;12.60;100.00
43436;BME280;36399;51.444;-2.018;2023-04-26T10:20:08;100784.44;;;12.42;100.00
43436;BME280;36399;51.444;-2.018;2023-04-26T10:22:42;100782.59;;;12.35;100.00
43436;BME280;36399;51.444;-2.018;2023-04-26T10:25:09;100793.03;;;12.24;100.00
43436;BME280;36399;51.444;-2.018;2023-04-26T10:27:46;100788.59;;;12.20;100.00
43436;BME280;36399;51.444;-2.018;2023-04-26T10:30:13;100782.47;;;12.21;100.00
43436;BME280;36399;51.444;-2.018;2023-04-26T10:35:18;100782.88;;;12.59;100.00
43436;BME280;36399;51.444;-2.018;2023-04-26T10:40:34;100781.31;;;12.81;100.00
43436;BME280;36399;51.444;-2.018;2023-04-26T10:45:38;100778.78;;;12.95;100.00
43436;BME280;36399;51.444;-2.018;2023-04-26T10:53:24;100774.88;;;13.55;100.00
43436;BME280;36399;51.444;-2.018;2023-04-26T10:55:50;100770.84;;;12.89;100.00
43436;BME280;36399;51.444;-2.018;2023-04-26T10:58:29;100771.22;;;13.35;100.00
43436;BME280;36399;51.444;-2.018;2023-04-26T11:01:17;100762.56;;;13.54;100.00
43436;BME280;36399;51.444;-2.018;2023-04-26T11:06:23;100755.41;;;13.35;100.00
43436;BME280;36399;51.444;-2.018;2023-04-26T11:08:50;100756.34;;;13.46;100.00
43436;BME280;36399;51.444;-2.018;2023-04-26T11:11:16;100753.44;;;13.09;100.00
43436;BME280;36399;51.444;-2.018;2023-04-26T11:13:45;100762.00;;;12.84;100.00
43436;BME280;36399;51.444;-2.018;2023-04-26T11:16:13;100756.78;;;12.90;100.00
43436;BME280;36399;51.444;-2.018;2023-04-26T11:18:41;100756.56;;;12.64;100.00
43436;BME280;36399;51.444;-2.018;2023-04-26T11:21:07;100766.88;;;12.41;100.00
43436;BME280;36399;51.444;-2.018;2023-04-26T11:23:34;100765.34;;;12.64;100.00
43436;BME280;36399;51.444;-2.018;2023-04-26T11:26:05;100768.75;;;12.51;100.00
43436;BME280;36399;51.444;-2.018;2023-04-26T11:28:32;100773.06;;;12.48;100.00
43436;BME280;36399;51.444;-2.018;2023-04-26T11:30:58;100774.44;;;12.09;100.00
43436;BME280;36399;51.444;-2.018;2023-04-26T11:33:24;100782.44;;;12.20;100.00
43436;BME280;36399;51.444;-2.018;2023-04-26T11:35:51;100782.31;;;12.08;100.00
43436;BME280;36399;51.444;-2.018;2023-04-26T11:38:21;100778.44;;;11.81;100.00
43436;BME280;36399;51.444;-2.018;2023-04-26T11:40:57;100773.38;;;11.96;100.00
43436;BME280;36399;51.444;-2.018;2023-04-26T11:43:36;100768.22;;;12.03;100.00
43436;BME280;36399;51.444;-2.018;2023-04-26T11:46:04;100758.78;;;12.21;100.00
43436;BME280;36399;51.444;-2.018;2023-04-26T11:48:31;100762.47;;;12.42;100.00
43436;BME280;36399;51.444;-2.018;2023-04-26T11:50:59;100763.13;;;12.18;100.00
43436;BME280;36399;51.444;-2.018;2023-04-26T11:53:39;100761.84;;;12.66;100.00
43436;BME280;36399;51.444;-2.018;2023-04-26T11:56:15;100757.50;;;12.71;100.00
43436;BME280;36399;51.444;-2.018;2023-04-26T11:58:49;100756.59;;;12.66;100.00
43436;BME280;36399;51.444;-2.018;2023-04-26T12:01:23;100751.28;;;12.59;100.00
43436;BME280;36399;51.444;-2.018;2023-04-26T12:03:51;100747.84;;;12.70;100.00
43436;BME280;36399;51.444;-2.018;2023-04-26T12:06:17;100753.91;;;12.61;100.00
43436;BME280;36399;51.444;-2.018;2023-04-26T12:08:51;100755.72;;;12.67;100.00
43436;BME280;36399;51.444;-2.018;2023-04-26T12:11:18;100751.28;;;12.62;100.00
43436;BME280;36399;51.444;-2.018;2023-04-26T12:13:45;100751.50;;;12.87;100.00
43436;BME280;36399;51.444;-2.018;2023-04-26T12:16:12;100751.78;;;13.20;100.00
43436;BME280;36399;51.444;-2.018;2023-04-26T12:18:39;100743.91;;;13.26;100.00
43436;BME280;36399;51.444;-2.018;2023-04-26T12:21:06;100739.66;;;13.50;100.00
43436;BME280;36399;51.444;-2.018;2023-04-26T12:23:36;100731.84;;;13.67;100.00
43436;BME280;36399;51.444;-2.018;2023-04-26T12:26:03;100732.78;;;13.81;100.00
43436;BME280;36399;51.444;-2.018;2023-04-26T12:28:29;100734.44;;;13.56;100.00
43436;BME280;36399;51.444;-2.018;2023-04-26T12:30:55;100735.34;;;13.60;100.00
43436;BME280;36399;51.444;-2.018;2023-04-26T12:33:21;100729.16;;;13.56;100.00
43436;BME280;36399;51.444;-2.018;2023-04-26T12:35:49;100725.66;;;13.57;100.00
43436;BME280;36399;51.444;-2.018;2023-04-26T12:38:17;100727.44;;;13.66;100.00
43436;BME280;36399;51.444;-2.018;2023-04-26T12:40:43;100728.38;;;13.77;100.00
43436;BME280;36399;51.444;-2.018;2023-04-26T12:43:09;100727.66;;;14.39;100.00
43436;BME280;36399;51.444;-2.018;2023-04-26T12:45:35;100725.97;;;14.90;100.00
43436;BME280;36399;51.444;-2.018;2023-04-26T12:48:02;100716.19;;;15.42;100.00
43436;BME280;36399;51.444;-2.018;2023-04-26T12:50:27;100716.19;;;15.42;100.00
43436;BME280;36399;51.444;-2.018;2023-04-26T12:52:53;100718.78;;;15.75;100.00
43436;BME280;36399;51.444;-2.018;2023-04-26T12:55:19;100713.50;;;15.69;100.00
43436;BME280;36399;51.444;-2.018;2023-04-26T12:57:45;100720.59;;;15.64;100.00